KFXE/FXE METAR and TAF weather

Enter ICAO airport designator
Station Type Date Time Source
KFXE METAR 2019/10/23 11:53 UTC NOAA

KFXE 231153Z 00000KT 10SM SCT045 26/25 A2998 RMK AO2 SLP154 T02560250 10261 20244 51009


Station Type Date Time Source
KFXE Decoded METAR 2019/10/23 11:53 UTC NOAA

FORT LAUDERDALE EXECUTIVE, FL, United States (KFXE) 26-12N 080-11W 6M
Oct 23, 2019 - 07:53 AM EDT / 2019.10.23 1153 UTC
Wind: Calm:0
Visibility: 10 mile(s):0
Sky conditions: partly cloudy
Temperature: 78.1 F (25.6 C)
Dew Point: 77.0 F (25.0 C)
Relative Humidity: 96%
Pressure (altimeter): 29.98 in. Hg (1015 hPa)
Pressure tendency: 0.03 inches (0.9 hPa) higher than three hours ago
ob: KFXE 231153Z 00000KT 10SM SCT045 26/25 A2998 RMK AO2 SLP154 T02560250 10261 20244 51009
cycle: 12

Station Type Date Time Source
KFXE TAF 2019/10/23 12:27 UTC NOAA

TAF KFXE 231124Z 2312/2412 VRB05KT P6SM FEW025 SCT060
FM231600 07010KT P6SM VCSH SCT030 BKN060
FM240000 08003KT P6SM FEW025 SCT060

Example: see airport list